Date,TemperatureHighF,TemperatureAvgF,TemperatureLowF,DewpointHighF,DewpointAvgF,DewpointLowF,HumidityHigh,HumidityAvg,HumidityLow,PressureMaxIn,PressureMinIn,WindSpeedMaxMPH,WindSpeedAvgMPH,GustSpeedMaxMPH,PrecipitationSumIn
2013-1-1,37,29,16,27,18,6,79,64,53,29.88,29.68,13,3,0,0.00
2013-1-2,33,16,-1,17,8,-5,88,70,52,30.06,29.87,9,2,0,0.01
2013-1-3,23,12,1,10,2,-7,85,64,32,30.11,29.96,6,2,0,0.00
2013-1-4,40,24,5,27,17,2,94,76,56,29.95,29.80,9,2,0,0.02
2013-1-5,43,31,16,28,22,14,92,72,50,30.21,29.82,9,2,0,0.00
2013-1-6,44,29,18,32,25,16,98,85,61,30.17,29.88,4,0,0,0.01
2013-1-7,40,25,13,31,19,10,98,81,45,30.36,29.92,11,2,0,0.00
2013-1-8,47,26,9,32,21,6,98,82,57,30.34,30.26,6,1,0,0.00
2013-1-9,44,31,14,38,27,12,98,86,66,30.37,30.00,4,1,0,0.00
2013-1-10,45,37,23,32,26,22,98,67,49,30.50,30.04,11,3,0,0.00
2013-1-11,38,30,19,34,27,18,98,90,69,30.49,30.14,2,0,0,0.23
2013-1-12,42,38,34,42,37,34,98,98,98,30.15,30.08,4,0,0,0.08
2013-1-13,49,43,36,48,42,36,98,98,98,30.11,29.95,5,1,0,0.01
2013-1-14,58,48,38,54,42,29,98,83,58,30.24,29.84,13,2,0,0.00
2013-1-15,41,35,28,32,28,26,98,78,62,30.29,30.16,6,1,0,0.00
2013-1-16,33,32,30,32,31,28,98,97,88,30.18,29.77,3,0,0,0.00
2013-1-17,42,33,24,36,28,17,98,81,60,30.04,29.80,7,1,0,0.88
2013-1-18,29,20,10,16,6,-1,88,54,34,30.41,29.99,11,3,0,0.00
2013-1-19,46,33,13,33,24,10,98,72,51,30.32,29.84,11,2,0,0.05
2013-1-20,52,38,26,35,27,11,98,67,38,29.87,29.52,9,3,0,0.00
2013-1-21,29,23,16,20,14,9,93,68,43,30.06,29.72,5,1,0,0.00
2013-1-22,23,17,10,20,6,-2,98,63,37,30.03,29.69,14,3,0,0.00
2013-1-23,18,9,2,0,-5,-10,65,52,41,30.12,30.02,8,3,0,0.00
2013-1-24,18,9,-3,-4,-7,-10,77,50,33,30.20,30.06,11,3,0,0.00
2013-1-25,24,15,5,12,-2,-9,85,47,29,30.30,29.99,7,2,0,0.00
2013-1-26,24,15,3,12,3,-3,88,62,37,30.21,29.95,9,2,0,0.00
2013-1-27,30,18,3,8,3,-1,82,54,33,30.41,30.21,7,2,0,0.00
2013-1-28,31,23,11,28,17,5,98,81,41,30.41,29.94,4,1,0,0.00
2013-1-29,37,31,26,35,30,26,98,95,85,30.14,29.94,6,1,0,0.34
2013-1-30,58,47,33,57,46,32,98,98,98,30.09,29.38,11,3,0,0.18
2013-1-31,60,46,29,59,39,15,98,76,47,29.56,28.94,12,4,0,1.27